createdAt,value
2023-05-02T00:02:05.283Z,91.58
2023-05-02T00:04:35.684Z,91.47
2023-05-02T00:07:05.325Z,91.01
2023-05-02T00:09:35.121Z,91.60
2023-05-02T00:12:05.884Z,91.63
2023-05-02T00:14:36.025Z,91.72
2023-05-02T00:17:06.151Z,91.40
2023-05-02T00:19:41.289Z,91.77
2023-05-02T00:22:12.550Z,91.52
2023-05-02T00:24:42.607Z,91.72
2023-05-02T00:27:12.821Z,91.79
2023-05-02T00:29:42.817Z,91.61
2023-05-02T00:32:12.952Z,91.57
2023-05-02T00:34:43.272Z,91.54
2023-05-02T00:37:14.321Z,91.37
2023-05-02T00:39:44.305Z,91.30
2023-05-02T00:42:14.301Z,91.35
2023-05-02T00:44:45.184Z,91.39
2023-05-02T00:47:17.224Z,91.57
2023-05-02T00:49:47.208Z,91.40
2023-05-02T00:52:17.387Z,91.41
2023-05-02T00:54:47.684Z,91.54
2023-05-02T00:57:17.675Z,90.96
2023-05-02T00:59:48.421Z,91.67
2023-05-02T01:02:39.035Z,91.41
2023-05-02T01:05:21.175Z,91.35
2023-05-02T01:08:23.496Z,91.52
2023-05-02T01:11:13.294Z,91.58
2023-05-02T01:13:46.944Z,91.38
2023-05-02T01:16:20.173Z,91.57
2023-05-02T01:18:53.074Z,91.67
2023-05-02T01:21:23.599Z,91.51
2023-05-02T01:24:30.833Z,91.44
2023-05-02T01:27:16.919Z,91.29
2023-05-02T01:29:50.628Z,91.71
2023-05-02T01:32:24.398Z,91.28
2023-05-02T01:34:55.691Z,91.16
2023-05-02T01:37:28.308Z,91.43
2023-05-02T01:40:00.973Z,91.34
2023-05-02T01:42:34.108Z,91.57
2023-05-02T01:45:06.360Z,91.74
2023-05-02T01:47:39.260Z,92.46
2023-05-02T01:50:13.295Z,91.80
2023-05-02T01:52:43.926Z,91.55
2023-05-02T01:55:17.118Z,91.94
2023-05-02T01:57:49.854Z,92.10
2023-05-02T02:00:21.345Z,91.77
2023-05-02T02:02:54.204Z,91.85
2023-05-02T02:05:25.921Z,91.95
2023-05-02T02:07:56.930Z,92.12
2023-05-02T02:10:32.036Z,92.19
2023-05-02T02:13:09.049Z,92.20
2023-05-02T02:15:41.497Z,92.34
2023-05-02T02:18:22.630Z,92.60
2023-05-02T02:20:54.812Z,92.71
2023-05-02T02:23:29.538Z,93.03
2023-05-02T02:26:00.150Z,93.13
2023-05-02T02:28:29.649Z,92.72
2023-05-02T02:30:59.466Z,93.74
2023-05-02T02:33:32.914Z,93.67
2023-05-02T02:36:26.731Z,93.66
2023-05-02T02:39:19.210Z,93.89
2023-05-02T02:42:17.520Z,93.81
2023-05-02T02:45:18.337Z,93.63
2023-05-02T02:47:59.532Z,94.21
2023-05-02T02:50:53.462Z,94.42
2023-05-02T02:53:33.020Z,93.93
2023-05-02T02:56:08.410Z,94.09
2023-05-02T02:58:53.832Z,94.38
2023-05-02T03:01:27.075Z,94.88
2023-05-02T03:03:58.908Z,95.03
2023-05-02T03:06:29.263Z,95.08
2023-05-02T03:08:59.992Z,95.23
2023-05-02T03:11:32.540Z,95.23
2023-05-02T03:14:02.603Z,95.40
2023-05-02T03:16:41.094Z,95.06
2023-05-02T03:19:17.426Z,95.13
2023-05-02T03:21:47.985Z,95.43
2023-05-02T03:24:23.108Z,95.94
2023-05-02T03:27:00.296Z,95.19
2023-05-02T03:29:36.188Z,95.27
2023-05-02T03:32:06.806Z,95.20
2023-05-02T03:34:38.820Z,95.37
2023-05-02T03:37:09.094Z,95.51
2023-05-02T03:39:39.064Z,95.01
2023-05-02T03:42:09.082Z,95.34
2023-05-02T03:44:39.153Z,95.42
2023-05-02T03:47:09.811Z,95.13
2023-05-02T03:49:43.386Z,95.52
2023-05-02T03:52:14.356Z,95.75
2023-05-02T03:55:19.342Z,95.83
2023-05-02T03:57:50.163Z,95.82
2023-05-02T04:00:20.595Z,96.02
2023-05-02T04:02:58.669Z,96.25
2023-05-02T04:05:31.281Z,96.36
2023-05-02T04:08:01.106Z,95.91
2023-05-02T04:10:32.789Z,96.47
2023-05-02T04:13:06.001Z,96.60
2023-05-02T04:15:37.567Z,96.46
2023-05-02T04:18:08.550Z,96.57
2023-05-02T04:20:40.182Z,96.16
2023-05-02T04:23:10.477Z,96.18
2023-05-02T04:25:41.027Z,96.49
2023-05-02T04:28:11.326Z,96.46
2023-05-02T04:30:41.235Z,95.91
2023-05-02T04:33:13.953Z,96.40
2023-05-02T04:35:43.772Z,96.11
2023-05-02T04:38:16.943Z,96.80
2023-05-02T04:43:59.838Z,97.14
2023-05-02T04:46:30.143Z,97.37
2023-05-02T04:48:59.868Z,96.66
2023-05-02T04:51:32.957Z,97.38
2023-05-02T04:54:05.008Z,97.67
2023-05-02T04:56:35.404Z,97.63
2023-05-02T04:59:05.647Z,97.41
2023-05-02T05:01:37.208Z,97.51
2023-05-02T05:04:27.840Z,97.05
2023-05-02T05:06:58.173Z,96.94
2023-05-02T05:09:30.726Z,96.69
2023-05-02T05:12:01.189Z,96.66
2023-05-02T05:14:33.066Z,97.03
2023-05-02T05:17:04.513Z,97.27
2023-05-02T05:19:35.665Z,97.36
2023-05-02T05:22:06.404Z,97.57
2023-05-02T05:24:36.634Z,97.55
2023-05-02T05:27:07.296Z,97.58
2023-05-02T05:29:38.827Z,97.64
2023-05-02T05:32:09.137Z,97.62
2023-05-02T05:34:40.303Z,97.47
2023-05-02T05:37:10.649Z,97.57
2023-05-02T05:39:41.150Z,97.36
2023-05-02T05:42:13.776Z,97.04
2023-05-02T05:44:47.374Z,97.09
2023-05-02T05:47:25.664Z,97.39
2023-05-02T05:49:57.236Z,97.24
2023-05-02T05:52:31.660Z,97.33
2023-05-02T05:55:05.644Z,97.39
2023-05-02T05:57:36.359Z,97.39
2023-05-02T06:00:09.458Z,97.59
2023-05-02T06:02:45.324Z,97.92
2023-05-02T06:05:25.518Z,97.86
2023-05-02T06:07:58.766Z,97.57
2023-05-02T06:10:29.833Z,97.79
2023-05-02T06:13:00.802Z,98.35
2023-05-02T06:15:38.945Z,98.77
2023-05-02T06:18:09.862Z,98.56
2023-05-02T06:20:40.166Z,98.59
2023-05-02T06:23:10.373Z,98.42
2023-05-02T06:25:40.778Z,97.52
2023-05-02T06:28:10.997Z,98.51
2023-05-02T06:30:41.257Z,98.98
2023-05-02T06:33:11.616Z,99.41
2023-05-02T06:35:41.803Z,99.51
2023-05-02T06:38:11.733Z,99.77
2023-05-02T06:40:46.638Z,99.29
2023-05-02T06:43:17.327Z,98.96
2023-05-02T06:45:47.685Z,98.70
2023-05-02T06:48:17.471Z,98.13
2023-05-02T06:50:47.438Z,98.52
2023-05-02T06:53:17.840Z,99.19
2023-05-02T06:55:49.722Z,99.71
2023-05-02T06:58:20.026Z,99.99
2023-05-02T07:00:50.794Z,99.99
2023-05-02T07:03:20.891Z,99.99
2023-05-02T07:05:51.568Z,99.99
2023-05-02T07:08:23.658Z,99.99
2023-05-02T07:10:53.962Z,99.99
2023-05-02T07:13:24.000Z,99.99
2023-05-02T07:15:55.770Z,99.99
2023-05-02T07:18:26.002Z,99.99
2023-05-02T07:20:56.428Z,99.99
2023-05-02T07:23:27.163Z,99.99
2023-05-02T07:25:57.516Z,99.99
2023-05-02T07:28:27.221Z,99.99
2023-05-02T07:30:57.622Z,99.99
2023-05-02T07:33:27.846Z,99.99
2023-05-02T07:35:58.365Z,99.99
2023-05-02T07:38:29.784Z,99.99
2023-05-02T07:41:01.082Z,99.99
2023-05-02T07:43:31.386Z,99.99
2023-05-02T07:46:05.208Z,99.99
2023-05-02T07:48:36.047Z,99.99
2023-05-02T07:51:13.450Z,99.99
2023-05-02T07:53:43.826Z,99.99
2023-05-02T07:56:14.273Z,99.99
2023-05-02T07:58:44.799Z,99.99
2023-05-02T08:01:15.032Z,99.99
2023-05-02T08:03:45.055Z,99.99
2023-05-02T08:06:15.739Z,99.99
2023-05-02T08:08:45.897Z,99.99
2023-05-02T08:11:16.578Z,99.99
2023-05-02T08:13:46.638Z,99.99
2023-05-02T08:16:16.403Z,99.99
2023-05-02T08:18:46.290Z,99.99
2023-05-02T08:21:17.107Z,99.99
2023-05-02T08:23:47.821Z,99.99
2023-05-02T08:26:20.294Z,99.99
2023-05-02T08:28:50.542Z,99.99
2023-05-02T08:31:20.981Z,99.99
2023-05-02T08:33:53.707Z,99.99
2023-05-02T08:36:24.278Z,99.99
2023-05-02T08:38:55.450Z,99.99
2023-05-02T08:41:26.572Z,99.99
2023-05-02T08:43:57.991Z,99.99
2023-05-02T08:46:28.689Z,99.99
2023-05-02T08:49:02.961Z,99.99
2023-05-02T08:51:34.375Z,99.99
2023-05-02T08:54:05.232Z,99.99
2023-05-02T08:56:35.710Z,99.99
2023-05-02T08:59:05.949Z,99.99
2023-05-02T09:01:38.030Z,99.99
2023-05-02T09:04:08.764Z,99.99
2023-05-02T09:06:39.456Z,99.99
2023-05-02T09:09:09.671Z,99.99
2023-05-02T09:11:40.389Z,99.99
2023-05-02T09:14:18.312Z,99.99
2023-05-02T09:16:49.649Z,99.99
2023-05-02T09:19:27.399Z,99.99
2023-05-02T09:22:04.141Z,99.99
2023-05-02T09:24:34.501Z,99.99
2023-05-02T09:27:06.269Z,99.99
2023-05-02T09:29:39.992Z,99.99
2023-05-02T09:32:10.507Z,99.99
2023-05-02T09:34:40.803Z,99.99
2023-05-02T09:37:11.585Z,99.99
2023-05-02T09:39:42.941Z,99.99
2023-05-02T09:42:13.241Z,99.99
2023-05-02T09:44:44.237Z,99.99
2023-05-02T09:47:30.218Z,99.99
2023-05-02T09:50:00.561Z,99.99
2023-05-02T09:52:30.352Z,99.99
2023-05-02T09:55:00.641Z,99.99
2023-05-02T09:57:43.268Z,99.99
2023-05-02T10:00:17.282Z,99.99
2023-05-02T10:02:51.741Z,99.99
2023-05-02T10:05:22.591Z,99.99
2023-05-02T10:07:53.175Z,99.99
2023-05-02T10:10:23.477Z,99.99
2023-05-02T10:12:55.754Z,99.99
2023-05-02T10:15:29.850Z,99.99
2023-05-02T10:18:04.675Z,99.99
2023-05-02T10:20:39.304Z,99.99
2023-05-02T10:23:10.379Z,99.99
2023-05-02T10:25:41.147Z,99.99
2023-05-02T10:28:12.454Z,99.99
2023-05-02T10:30:43.141Z,99.99
2023-05-02T10:33:15.847Z,99.99
2023-05-02T10:35:49.215Z,99.99
2023-05-02T10:38:24.648Z,99.99
2023-05-02T10:40:59.335Z,99.99
2023-05-02T10:43:35.978Z,99.99
2023-05-02T10:46:44.243Z,99.99
2023-05-02T10:49:15.625Z,99.99
2023-05-02T10:51:45.883Z,99.99
2023-05-02T10:54:21.706Z,99.99
2023-05-02T10:57:10.550Z,99.99
2023-05-02T10:59:42.779Z,99.99
2023-05-02T11:02:26.378Z,99.99
2023-05-02T11:05:09.537Z,99.99
2023-05-02T11:07:39.909Z,99.99
2023-05-02T11:10:22.388Z,99.99
2023-05-02T11:13:02.482Z,99.99
2023-05-02T11:15:34.521Z,99.99
2023-05-02T11:18:08.495Z,99.99
2023-05-02T11:20:40.844Z,99.99
2023-05-02T11:23:16.998Z,99.99
2023-05-02T11:25:51.852Z,99.99
2023-05-02T11:28:40.497Z,99.99
2023-05-02T11:31:31.887Z,99.99
2023-05-02T11:34:03.900Z,99.99
2023-05-02T11:36:35.406Z,99.99
2023-05-02T11:39:09.588Z,99.99
2023-05-02T11:41:48.199Z,99.99
2023-05-02T11:44:18.811Z,99.99
2023-05-02T11:46:49.326Z,99.99
2023-05-02T11:49:19.720Z,99.99
2023-05-02T11:51:49.397Z,99.99
2023-05-02T11:54:23.138Z,99.99
2023-05-02T11:56:53.723Z,99.99
2023-05-02T11:59:23.488Z,99.99
2023-05-02T12:01:55.050Z,99.99
2023-05-02T12:04:27.625Z,99.99
2023-05-02T12:07:00.803Z,99.99
2023-05-02T12:09:31.052Z,99.99
2023-05-02T12:12:02.432Z,99.99
2023-05-02T12:14:37.570Z,99.99
2023-05-02T12:17:08.044Z,99.99
2023-05-02T12:19:39.226Z,99.99
2023-05-02T12:22:09.662Z,99.99
2023-05-02T12:24:40.453Z,99.99
2023-05-02T12:27:18.126Z,99.99
2023-05-02T12:29:50.269Z,99.99
2023-05-02T12:32:33.792Z,99.99
2023-05-02T12:35:05.481Z,99.99
2023-05-02T12:37:35.728Z,99.99
2023-05-02T12:40:16.683Z,99.99
2023-05-02T12:43:05.183Z,99.99
2023-05-02T12:45:36.007Z,99.99
2023-05-02T12:48:27.000Z,99.99
2023-05-02T12:50:57.425Z,99.99
2023-05-02T12:53:45.188Z,99.99
2023-05-02T12:56:17.606Z,99.99
2023-05-02T12:58:49.886Z,99.99
2023-05-02T13:01:21.153Z,99.99
2023-05-02T13:03:53.192Z,99.99
2023-05-02T13:06:23.464Z,99.99
2023-05-02T13:08:53.762Z,99.99
2023-05-02T13:11:23.972Z,99.99
2023-05-02T13:13:55.499Z,99.99
2023-05-02T13:16:25.988Z,99.99
2023-05-02T13:18:56.330Z,99.99
2023-05-02T13:21:26.636Z,99.99
2023-05-02T13:23:56.914Z,99.99
2023-05-02T13:26:27.875Z,99.99
2023-05-02T13:28:58.178Z,99.99
2023-05-02T13:31:28.510Z,99.99
2023-05-02T13:33:58.812Z,99.99
2023-05-02T13:36:31.634Z,99.99
2023-05-02T13:39:03.463Z,99.99
2023-05-02T13:41:33.917Z,99.99
2023-05-02T13:44:04.137Z,99.99
2023-05-02T13:46:38.004Z,99.99
2023-05-02T13:49:08.577Z,99.99
2023-05-02T13:51:38.798Z,99.99
2023-05-02T13:54:09.163Z,99.99
2023-05-02T13:56:41.048Z,99.99
2023-05-02T13:59:11.520Z,99.99
2023-05-02T14:01:42.002Z,99.99
2023-05-02T14:04:12.535Z,99.99
2023-05-02T14:06:42.891Z,99.99
2023-05-02T14:09:12.694Z,99.99
2023-05-02T14:11:42.872Z,99.99
2023-05-02T14:14:14.022Z,99.99
2023-05-02T14:16:46.671Z,99.99
2023-05-02T14:19:19.309Z,99.99
2023-05-02T14:21:49.782Z,99.99
2023-05-02T14:24:20.647Z,99.99
2023-05-02T14:26:50.948Z,99.99
2023-05-02T14:29:21.710Z,99.99
2023-05-02T14:31:52.033Z,99.99
2023-05-02T14:34:23.274Z,99.99
2023-05-02T14:36:53.522Z,99.99
2023-05-02T14:39:23.396Z,99.99
2023-05-02T14:41:53.414Z,99.99
2023-05-02T14:44:23.155Z,99.99
2023-05-02T14:46:57.616Z,99.99
2023-05-02T14:49:29.111Z,99.99
2023-05-02T14:51:59.392Z,99.99
2023-05-02T14:54:30.954Z,99.99
2023-05-02T14:57:01.255Z,99.99
2023-05-02T14:59:32.673Z,99.99
2023-05-02T15:02:03.104Z,99.99
2023-05-02T15:04:33.712Z,99.99
2023-05-02T15:07:04.450Z,99.99
2023-05-02T15:09:36.156Z,99.99
2023-05-02T15:12:06.023Z,99.99
2023-05-02T15:14:36.197Z,99.99
2023-05-02T15:17:06.439Z,99.99
2023-05-02T15:19:36.792Z,99.99
2023-05-02T15:22:06.580Z,99.99
2023-05-02T15:24:37.009Z,99.99
2023-05-02T15:27:07.370Z,99.99
2023-05-02T15:29:37.188Z,99.99
2023-05-02T15:32:07.501Z,99.99
2023-05-02T15:34:37.794Z,99.99
2023-05-02T15:37:07.513Z,99.99
2023-05-02T15:39:37.380Z,99.99
2023-05-02T15:42:08.139Z,99.99
2023-05-02T15:44:39.176Z,99.99
2023-05-02T15:47:09.757Z,99.99
2023-05-02T15:49:40.443Z,99.99
2023-05-02T15:52:10.323Z,99.99
2023-05-02T15:54:40.579Z,99.99
2023-05-02T15:57:13.971Z,99.99
2023-05-02T15:59:44.590Z,99.99
2023-05-02T16:02:15.054Z,99.99
2023-05-02T16:04:45.297Z,99.99
2023-05-02T16:07:15.587Z,99.99
2023-05-02T16:09:45.288Z,99.99
2023-05-02T16:12:15.822Z,99.99
2023-05-02T16:14:46.561Z,99.99
2023-05-02T16:17:17.392Z,99.99
2023-05-02T16:19:47.852Z,99.99
2023-05-02T16:22:18.103Z,99.99
2023-05-02T16:24:47.852Z,99.99
2023-05-02T16:27:18.061Z,99.99
2023-05-02T16:29:47.882Z,99.99
2023-05-02T16:32:18.089Z,99.99
2023-05-02T16:34:48.350Z,99.99
2023-05-02T16:37:18.116Z,99.99
2023-05-02T16:39:48.084Z,99.99
2023-05-02T16:42:17.814Z,99.99
2023-05-02T16:44:47.806Z,99.99
2023-05-02T16:47:17.824Z,99.99
2023-05-02T16:49:47.908Z,99.99
2023-05-02T16:52:17.768Z,99.99
2023-05-02T16:54:47.629Z,99.99
2023-05-02T16:57:21.065Z,99.99
2023-05-02T16:59:52.835Z,99.99
2023-05-02T17:02:23.502Z,99.75
2023-05-02T17:04:53.698Z,99.99
2023-05-02T17:07:23.972Z,99.99
2023-05-02T17:09:54.554Z,99.99
2023-05-02T17:12:24.898Z,99.99
2023-05-02T17:14:55.135Z,99.99
2023-05-02T17:17:25.574Z,99.99
2023-05-02T17:19:55.709Z,99.01
2023-05-02T17:22:25.750Z,98.55
2023-05-02T17:24:57.446Z,99.49
2023-05-02T17:27:27.972Z,99.89
2023-05-02T17:29:58.257Z,99.99
2023-05-02T17:32:28.027Z,99.99
2023-05-02T17:34:58.841Z,99.99
2023-05-02T17:37:30.152Z,99.81
2023-05-02T17:40:02.434Z,99.99
2023-05-02T17:42:33.281Z,99.99
2023-05-02T17:45:03.873Z,99.99
2023-05-02T17:47:34.512Z,99.99
2023-05-02T17:50:05.891Z,99.99
2023-05-02T17:52:36.853Z,99.99
2023-05-02T17:55:08.026Z,99.99
2023-05-02T17:57:38.590Z,99.99
2023-05-02T18:00:10.743Z,99.99
2023-05-02T18:02:41.358Z,99.99
2023-05-02T18:05:11.814Z,99.99
2023-05-02T18:07:42.397Z,99.99
2023-05-02T18:10:32.107Z,99.99
2023-05-02T18:13:02.487Z,99.99
2023-05-02T18:15:32.827Z,99.99
2023-05-02T18:18:03.516Z,99.99
2023-05-02T18:20:33.817Z,99.99
2023-05-02T18:23:03.529Z,99.99
2023-05-02T18:25:36.532Z,99.99
2023-05-02T18:28:07.475Z,99.99
2023-05-02T18:30:41.555Z,99.99
2023-05-02T18:33:12.063Z,99.99
2023-05-02T18:35:50.348Z,99.99
2023-05-02T18:38:20.947Z,99.99
2023-05-02T18:40:51.526Z,99.99
2023-05-02T18:43:22.944Z,99.99
2023-05-02T18:45:53.470Z,99.99
2023-05-02T18:48:23.887Z,99.99
2023-05-02T18:51:00.415Z,99.99
2023-05-02T18:53:30.059Z,99.99
2023-05-02T18:56:00.187Z,99.99
2023-05-02T18:58:30.668Z,99.99
2023-05-02T19:01:01.267Z,99.99
2023-05-02T19:03:32.064Z,99.99
2023-05-02T19:06:02.673Z,99.99
2023-05-02T19:08:33.543Z,99.99
2023-05-02T19:11:04.980Z,99.99
2023-05-02T19:13:35.496Z,99.99
2023-05-02T19:16:07.110Z,99.99
2023-05-02T19:18:39.025Z,99.99
2023-05-02T19:21:15.817Z,99.99
2023-05-02T19:23:47.645Z,99.99
2023-05-02T19:26:19.415Z,99.99
2023-05-02T19:28:49.800Z,99.99
2023-05-02T19:31:21.597Z,99.99
2023-05-02T19:33:56.076Z,99.99
2023-05-02T19:36:28.613Z,99.99
2023-05-02T19:39:01.668Z,99.99
2023-05-02T19:41:32.160Z,99.99
2023-05-02T19:44:02.884Z,99.99
2023-05-02T19:46:37.890Z,99.99
2023-05-02T19:49:09.832Z,99.99
2023-05-02T19:51:40.300Z,99.99
2023-05-02T19:54:10.556Z,99.99
2023-05-02T19:56:40.518Z,99.99
2023-05-02T19:59:11.055Z,99.99
2023-05-02T20:01:41.420Z,99.99
2023-05-02T20:04:12.020Z,99.99
2023-05-02T20:06:42.396Z,99.99
2023-05-02T20:09:12.764Z,99.99
2023-05-02T20:11:42.920Z,99.99
2023-05-02T20:14:13.289Z,99.99
2023-05-02T20:16:43.038Z,99.99
2023-05-02T20:19:14.054Z,99.99
2023-05-02T20:21:44.770Z,99.99
2023-05-02T20:24:15.108Z,99.99
2023-05-02T20:26:44.814Z,99.99
2023-05-02T20:29:14.811Z,99.99
2023-05-02T20:31:44.778Z,99.99
2023-05-02T20:34:15.318Z,99.99
2023-05-02T20:36:45.635Z,99.99
2023-05-02T20:39:21.516Z,99.99
2023-05-02T20:41:51.769Z,99.99
2023-05-02T20:44:23.554Z,99.99
2023-05-02T20:46:54.565Z,99.99
2023-05-02T20:49:28.107Z,99.99
2023-05-02T20:51:58.296Z,99.99
2023-05-02T20:54:30.206Z,99.99
2023-05-02T20:57:00.706Z,99.99
2023-05-02T20:59:30.449Z,99.99
2023-05-02T21:02:00.427Z,99.99
2023-05-02T21:04:30.268Z,99.99
2023-05-02T21:07:00.585Z,99.99
2023-05-02T21:09:30.704Z,99.99
2023-05-02T21:12:00.599Z,99.99
2023-05-02T21:14:31.742Z,99.99
2023-05-02T21:17:02.440Z,99.99
2023-05-02T21:19:36.342Z,99.99
2023-05-02T21:22:07.702Z,99.99
2023-05-02T21:24:38.710Z,99.99
2023-05-02T21:27:09.173Z,99.99
2023-05-02T21:29:43.296Z,99.99
2023-05-02T21:32:14.415Z,99.99
2023-05-02T21:34:47.110Z,99.99
2023-05-02T21:37:18.210Z,99.99
2023-05-02T21:39:48.851Z,99.99
2023-05-02T21:42:19.292Z,99.99
2023-05-02T21:44:55.568Z,99.99
2023-05-02T21:47:27.975Z,99.99
2023-05-02T21:50:01.234Z,99.99
2023-05-02T21:52:32.976Z,99.99
2023-05-02T21:55:09.722Z,99.99
2023-05-02T21:57:43.815Z,99.99
2023-05-02T22:00:18.902Z,99.99
2023-05-02T22:02:52.617Z,99.99
2023-05-02T22:05:24.399Z,99.99
2023-05-02T22:07:57.748Z,99.99
2023-05-02T22:10:30.295Z,99.99
2023-05-02T22:13:04.473Z,99.99
2023-05-02T22:15:37.910Z,99.99
2023-05-02T22:18:12.644Z,99.99
2023-05-02T22:20:47.083Z,99.99
2023-05-02T22:23:21.077Z,99.99
2023-05-02T22:25:56.907Z,99.99
2023-05-02T22:28:29.115Z,99.99
2023-05-02T22:31:03.022Z,99.99
2023-05-02T22:33:35.527Z,99.99
2023-05-02T22:36:07.752Z,99.99
2023-05-02T22:38:41.987Z,99.99
2023-05-02T22:41:17.706Z,99.99
2023-05-02T22:43:51.153Z,99.99
2023-05-02T22:46:25.204Z,99.99
2023-05-02T22:48:59.361Z,99.99
2023-05-02T22:51:33.564Z,99.99
2023-05-02T22:54:08.937Z,99.99
2023-05-02T22:56:43.693Z,99.99
2023-05-02T22:59:18.042Z,99.99
2023-05-02T23:01:52.059Z,99.99
2023-05-02T23:04:24.915Z,99.99
2023-05-02T23:06:57.465Z,99.99
2023-05-02T23:09:33.940Z,99.99
2023-05-02T23:12:08.454Z,99.99
2023-05-02T23:14:45.634Z,99.99
2023-05-02T23:17:18.458Z,99.99
2023-05-02T23:19:58.647Z,99.99
2023-05-02T23:22:40.639Z,99.99
2023-05-02T23:25:16.266Z,99.99
2023-05-02T23:28:10.405Z,99.99
2023-05-02T23:30:43.978Z,99.99
2023-05-02T23:33:20.368Z,99.99
2023-05-02T23:35:54.510Z,99.99
2023-05-02T23:38:29.561Z,99.99
2023-05-02T23:41:09.577Z,99.99
2023-05-02T23:43:51.346Z,99.99
2023-05-02T23:46:27.614Z,99.99
2023-05-02T23:49:01.226Z,99.99
2023-05-02T23:51:38.108Z,99.99
2023-05-02T23:54:13.526Z,99.99
2023-05-02T23:56:46.724Z,99.99
2023-05-02T23:59:20.764Z,99.99
